createdAt,value
2018-06-27T00:02:25.270Z,17.90
2018-06-27T00:04:53.590Z,17.80
2018-06-27T00:07:22.000Z,17.80
2018-06-27T00:09:50.437Z,17.80
2018-06-27T00:12:18.810Z,17.80
2018-06-27T00:14:47.143Z,17.70
2018-06-27T00:17:15.502Z,17.70
2018-06-27T00:19:43.851Z,17.70
2018-06-27T00:22:12.440Z,17.60
2018-06-27T00:24:40.829Z,17.50
2018-06-27T00:27:09.185Z,17.60
2018-06-27T00:29:37.529Z,17.50
2018-06-27T00:32:05.897Z,17.50
2018-06-27T00:34:34.273Z,17.40
2018-06-27T00:37:02.624Z,17.40
2018-06-27T00:39:30.966Z,17.40
2018-06-27T00:41:59.322Z,17.30
2018-06-27T00:44:27.665Z,17.30
2018-06-27T00:46:56.055Z,17.30
2018-06-27T00:49:24.397Z,17.30
2018-06-27T00:51:52.789Z,17.30
2018-06-27T00:54:21.106Z,17.30
2018-06-27T00:56:49.487Z,17.30
2018-06-27T00:59:17.817Z,17.20
2018-06-27T01:01:46.161Z,17.20
2018-06-27T01:04:14.514Z,17.10
2018-06-27T01:06:42.916Z,17.10
2018-06-27T01:09:11.269Z,17.10
2018-06-27T01:11:39.755Z,17.00
2018-06-27T01:14:08.234Z,17.00
2018-06-27T01:16:36.582Z,17.00
2018-06-27T01:19:05.167Z,16.90
2018-06-27T01:21:34.201Z,16.90
2018-06-27T01:24:02.546Z,16.90
2018-06-27T01:26:30.925Z,16.90
2018-06-27T01:28:59.273Z,16.80
2018-06-27T01:31:27.613Z,16.90
2018-06-27T01:33:55.977Z,16.90
2018-06-27T01:36:24.310Z,16.80
2018-06-27T01:38:52.669Z,16.70
2018-06-27T01:41:21.001Z,16.70
2018-06-27T01:43:49.393Z,16.70
2018-06-27T01:46:17.753Z,16.70
2018-06-27T01:48:46.186Z,16.70
2018-06-27T01:51:14.557Z,16.60
2018-06-27T01:53:42.897Z,16.60
2018-06-27T01:56:11.709Z,16.60
2018-06-27T01:58:40.050Z,16.60
2018-06-27T02:01:08.373Z,16.60
2018-06-27T02:03:36.725Z,16.50
2018-06-27T02:06:05.074Z,16.60
2018-06-27T02:08:33.467Z,16.60
2018-06-27T02:11:01.970Z,16.50
2018-06-27T02:13:30.330Z,16.50
2018-06-27T02:15:58.646Z,16.50
2018-06-27T02:18:27.014Z,16.50
2018-06-27T02:20:55.338Z,16.50
2018-06-27T02:23:23.804Z,16.50
2018-06-27T02:25:52.185Z,16.40
2018-06-27T02:28:20.562Z,16.40
2018-06-27T02:30:48.866Z,16.40
2018-06-27T02:33:22.501Z,16.30
2018-06-27T02:35:50.977Z,16.30
2018-06-27T02:38:19.424Z,16.30
2018-06-27T02:40:47.771Z,16.20
2018-06-27T02:43:16.109Z,16.20
2018-06-27T02:45:44.429Z,16.20
2018-06-27T02:48:12.778Z,16.10
2018-06-27T02:50:41.140Z,16.10
2018-06-27T02:53:09.573Z,16.10
2018-06-27T02:55:37.906Z,16.10
2018-06-27T02:58:06.642Z,16.00
2018-06-27T03:00:35.019Z,16.00
2018-06-27T03:03:03.334Z,15.90
2018-06-27T03:05:31.731Z,16.50
2018-06-27T03:08:00.094Z,15.90
2018-06-27T03:10:28.503Z,15.90
2018-06-27T03:12:56.853Z,15.80
2018-06-27T03:15:25.290Z,15.80
2018-06-27T03:17:53.786Z,15.80
2018-06-27T03:20:22.228Z,15.80
2018-06-27T03:22:50.525Z,15.80
2018-06-27T03:25:18.919Z,15.80
2018-06-27T03:27:47.258Z,15.90
2018-06-27T03:30:15.659Z,15.90
2018-06-27T03:35:12.124Z,15.90
2018-06-27T03:37:40.499Z,15.90
2018-06-27T03:40:08.916Z,15.90
2018-06-27T03:42:37.305Z,15.90
2018-06-27T03:45:05.707Z,15.90
2018-06-27T03:47:34.061Z,15.80
2018-06-27T03:50:02.439Z,15.90
2018-06-27T03:52:30.825Z,16.00
2018-06-27T03:54:59.288Z,16.00
2018-06-27T03:57:27.630Z,16.00
2018-06-27T03:59:56.000Z,16.10
2018-06-27T04:02:24.366Z,16.10
2018-06-27T04:04:52.764Z,16.10
2018-06-27T04:07:21.166Z,16.20
2018-06-27T04:09:49.567Z,16.20
2018-06-27T04:12:17.937Z,16.20
2018-06-27T04:14:46.296Z,16.20
2018-06-27T04:17:14.685Z,16.20
2018-06-27T04:19:43.077Z,16.20
2018-06-27T04:22:11.491Z,16.20
2018-06-27T04:24:40.261Z,16.20
2018-06-27T04:27:08.616Z,16.20
2018-06-27T04:29:37.038Z,16.20
2018-06-27T04:32:05.585Z,16.30
2018-06-27T04:34:33.961Z,16.30
2018-06-27T04:37:02.515Z,16.30
2018-06-27T04:39:30.885Z,16.40
2018-06-27T04:41:59.231Z,16.40
2018-06-27T04:44:27.575Z,16.50
2018-06-27T04:46:55.981Z,16.50
2018-06-27T04:49:24.355Z,16.50
2018-06-27T04:51:52.751Z,16.60
2018-06-27T04:54:27.583Z,16.60
2018-06-27T04:56:56.250Z,16.60
2018-06-27T04:59:24.800Z,16.70
2018-06-27T05:01:53.360Z,16.70
2018-06-27T05:04:21.821Z,16.80
2018-06-27T05:09:18.281Z,17.00
2018-06-27T05:11:46.635Z,17.20
2018-06-27T05:14:14.988Z,17.30
2018-06-27T05:16:43.411Z,17.40
2018-06-27T05:19:11.777Z,17.50
2018-06-27T05:21:40.174Z,17.60
2018-06-27T05:24:08.528Z,17.60
2018-06-27T05:26:37.172Z,17.70
2018-06-27T05:29:05.598Z,17.80
2018-06-27T05:31:33.977Z,17.90
2018-06-27T05:34:02.361Z,18.00
2018-06-27T05:36:30.730Z,18.00
2018-06-27T05:38:59.084Z,18.10
2018-06-27T05:41:27.427Z,18.10
2018-06-27T05:43:55.770Z,18.20
2018-06-27T05:46:24.193Z,18.20
2018-06-27T05:48:54.153Z,18.30
2018-06-27T05:51:22.664Z,18.40
2018-06-27T05:53:51.017Z,18.50
2018-06-27T05:56:19.369Z,18.60
2018-06-27T05:58:47.775Z,18.70
2018-06-27T06:01:16.205Z,18.80
2018-06-27T06:03:44.697Z,18.90
2018-06-27T06:06:13.113Z,19.00
2018-06-27T06:08:41.446Z,19.10
2018-06-27T06:11:09.928Z,19.20
2018-06-27T06:13:38.267Z,19.30
2018-06-27T06:16:06.838Z,19.40
2018-06-27T06:18:35.218Z,19.50
2018-06-27T06:21:03.614Z,19.60
2018-06-27T06:23:31.933Z,19.70
2018-06-27T06:26:00.321Z,19.80
2018-06-27T06:28:28.722Z,19.80
2018-06-27T06:30:57.089Z,19.90
2018-06-27T06:33:25.431Z,20.00
2018-06-27T06:35:53.780Z,20.00
2018-06-27T06:38:22.148Z,20.10
2018-06-27T06:40:50.993Z,20.20
2018-06-27T06:43:19.380Z,20.30
2018-06-27T06:45:47.767Z,20.40
2018-06-27T06:48:16.428Z,20.50
2018-06-27T06:50:44.734Z,20.70
2018-06-27T06:53:13.177Z,20.70
2018-06-27T06:55:41.586Z,20.80
2018-06-27T06:58:09.982Z,20.90
2018-06-27T07:00:38.343Z,21.10
2018-06-27T07:03:06.733Z,21.10
2018-06-27T07:05:35.150Z,21.20
2018-06-27T07:08:03.729Z,21.30
2018-06-27T07:10:32.167Z,21.30
2018-06-27T07:13:00.668Z,21.40
2018-06-27T07:15:29.080Z,21.50
2018-06-27T07:17:57.497Z,21.60
2018-06-27T07:20:25.869Z,21.70
2018-06-27T07:22:54.255Z,21.80
2018-06-27T07:25:22.721Z,21.80
2018-06-27T07:27:51.121Z,21.90
2018-06-27T07:30:19.659Z,22.00
2018-06-27T07:32:48.262Z,22.10
2018-06-27T07:35:16.682Z,22.20
2018-06-27T07:37:45.137Z,22.20
2018-06-27T07:40:13.581Z,22.30
2018-06-27T07:42:42.145Z,22.40
2018-06-27T07:45:10.570Z,22.50
2018-06-27T07:47:39.024Z,22.40
2018-06-27T07:50:07.457Z,22.50
2018-06-27T07:52:36.033Z,22.60
2018-06-27T07:55:04.480Z,22.70
2018-06-27T07:57:32.893Z,22.70
2018-06-27T08:00:01.322Z,22.70
2018-06-27T08:02:29.767Z,22.80
2018-06-27T08:04:58.217Z,22.90
2018-06-27T08:07:26.630Z,22.90
2018-06-27T08:09:55.042Z,23.00
2018-06-27T08:12:23.770Z,23.00
2018-06-27T08:14:52.126Z,23.10
2018-06-27T08:17:20.535Z,23.20
2018-06-27T08:19:49.161Z,23.30
2018-06-27T08:22:17.555Z,23.30
2018-06-27T08:24:46.006Z,23.40
2018-06-27T08:27:14.388Z,23.40
2018-06-27T08:29:42.809Z,23.50
2018-06-27T08:32:11.222Z,23.60
2018-06-27T08:34:39.641Z,23.70
2018-06-27T08:37:08.037Z,23.80
2018-06-27T08:39:36.457Z,23.80
2018-06-27T08:42:04.820Z,23.90
2018-06-27T08:44:33.222Z,23.90
2018-06-27T08:47:01.591Z,23.90
2018-06-27T08:49:29.994Z,23.90
2018-06-27T08:51:58.403Z,23.90
2018-06-27T08:54:26.857Z,24.00
2018-06-27T08:56:55.262Z,24.10
2018-06-27T08:59:23.690Z,24.20
2018-06-27T09:01:52.064Z,24.30
2018-06-27T09:04:20.480Z,24.30
2018-06-27T09:06:48.943Z,24.30
2018-06-27T09:09:17.350Z,24.20
2018-06-27T09:11:45.869Z,24.00
2018-06-27T09:14:14.325Z,24.10
2018-06-27T09:16:42.751Z,24.10
2018-06-27T09:19:11.296Z,24.30
2018-06-27T09:21:39.739Z,24.30
2018-06-27T09:24:08.185Z,24.30
2018-06-27T09:26:36.604Z,24.40
2018-06-27T09:29:05.133Z,24.40
2018-06-27T09:31:33.529Z,24.50
2018-06-27T09:34:02.040Z,24.50
2018-06-27T09:36:30.447Z,24.40
2018-06-27T09:38:58.922Z,24.40
2018-06-27T09:41:27.777Z,24.60
2018-06-27T09:43:56.318Z,24.70
2018-06-27T09:46:24.774Z,24.70
2018-06-27T09:48:53.215Z,25.00
2018-06-27T09:51:21.635Z,25.20
2018-06-27T09:53:50.056Z,25.30
2018-06-27T09:56:18.568Z,25.50
2018-06-27T09:58:46.998Z,25.70
2018-06-27T10:01:15.437Z,26.10
2018-06-27T10:03:44.048Z,26.20
2018-06-27T10:06:12.494Z,26.50
2018-06-27T10:08:41.002Z,26.80
2018-06-27T10:11:09.414Z,26.70
2018-06-27T10:13:37.817Z,26.80
2018-06-27T10:16:06.328Z,26.90
2018-06-27T10:18:34.953Z,26.90
2018-06-27T10:21:03.394Z,27.30
2018-06-27T10:23:31.921Z,27.80
2018-06-27T10:26:00.322Z,28.50
2018-06-27T10:28:31.039Z,29.10
2018-06-27T10:30:59.492Z,29.70
2018-06-27T10:33:27.904Z,30.10
2018-06-27T10:35:56.417Z,30.30
2018-06-27T10:38:24.791Z,30.50
2018-06-27T10:40:55.249Z,31.00
2018-06-27T10:43:23.618Z,31.30
2018-06-27T10:45:52.042Z,31.70
2018-06-27T10:48:20.510Z,31.60
2018-06-27T10:50:48.898Z,31.70
2018-06-27T10:53:17.283Z,31.20
2018-06-27T10:55:45.686Z,31.20
2018-06-27T10:58:14.095Z,31.30
2018-06-27T11:00:42.548Z,31.60
2018-06-27T11:03:10.966Z,31.60
2018-06-27T11:05:39.482Z,31.60
2018-06-27T11:08:07.840Z,31.50
2018-06-27T11:10:36.223Z,31.10
2018-06-27T11:13:05.413Z,30.30
2018-06-27T11:15:33.990Z,30.00
2018-06-27T11:18:02.958Z,30.00
2018-06-27T11:20:31.354Z,29.90
2018-06-27T11:22:59.942Z,29.70
2018-06-27T11:25:29.640Z,29.60
2018-06-27T11:27:58.077Z,29.60
2018-06-27T11:30:26.597Z,29.80
2018-06-27T11:32:55.094Z,29.90
2018-06-27T11:35:23.446Z,30.40
2018-06-27T11:37:51.876Z,31.00
2018-06-27T11:40:20.246Z,31.80
2018-06-27T11:42:49.074Z,32.10
2018-06-27T11:45:17.461Z,31.90
2018-06-27T11:47:45.883Z,31.20
2018-06-27T11:50:14.194Z,31.20
2018-06-27T11:52:42.636Z,31.10
2018-06-27T11:55:12.503Z,30.60
2018-06-27T11:57:42.343Z,30.10
2018-06-27T12:00:10.766Z,30.40
2018-06-27T12:05:08.518Z,30.40
2018-06-27T12:07:36.977Z,30.30
2018-06-27T12:10:05.704Z,30.20
2018-06-27T12:12:34.176Z,30.60
2018-06-27T12:15:02.552Z,31.50
2018-06-27T12:17:31.224Z,32.30
2018-06-27T12:19:59.573Z,32.50
2018-06-27T12:22:28.161Z,33.20
2018-06-27T12:24:58.876Z,33.30
2018-06-27T12:27:27.499Z,32.80
2018-06-27T12:29:55.943Z,31.90
2018-06-27T12:32:24.492Z,30.90
2018-06-27T12:34:52.900Z,30.30
2018-06-27T12:37:21.339Z,30.40
2018-06-27T12:39:49.714Z,30.90
2018-06-27T12:42:18.185Z,32.10
2018-06-27T12:44:46.667Z,33.40
2018-06-27T12:47:15.913Z,34.70
2018-06-27T12:49:44.294Z,35.00
2018-06-27T12:52:12.711Z,34.20
2018-06-27T12:54:41.129Z,33.70
2018-06-27T12:57:09.558Z,33.90
2018-06-27T12:59:38.058Z,34.40
2018-06-27T13:02:07.198Z,35.30
2018-06-27T13:04:35.571Z,36.50
2018-06-27T13:07:04.166Z,37.30
2018-06-27T13:09:32.506Z,38.10
2018-06-27T13:12:00.987Z,38.70
2018-06-27T13:14:29.385Z,39.50
2018-06-27T13:16:57.841Z,39.30
2018-06-27T13:19:26.229Z,38.50
2018-06-27T13:21:54.828Z,36.70
2018-06-27T13:24:23.365Z,34.80
2018-06-27T13:26:51.875Z,34.50
2018-06-27T13:29:20.369Z,35.10
2018-06-27T13:31:48.788Z,35.80
2018-06-27T13:34:17.277Z,36.60
2018-06-27T13:36:45.736Z,36.80
2018-06-27T13:39:14.135Z,37.00
2018-06-27T13:41:42.523Z,37.30
2018-06-27T13:44:10.929Z,38.10
2018-06-27T13:46:39.310Z,38.90
2018-06-27T13:49:07.897Z,39.40
2018-06-27T13:51:36.308Z,39.60
2018-06-27T13:54:04.750Z,39.90
2018-06-27T13:56:33.116Z,40.40
2018-06-27T13:59:02.627Z,40.90
2018-06-27T14:01:31.340Z,41.50
2018-06-27T14:04:00.002Z,41.80
2018-06-27T14:06:28.636Z,41.60
2018-06-27T14:08:57.059Z,41.40
2018-06-27T14:11:25.475Z,41.60
2018-06-27T14:13:53.941Z,41.90
2018-06-27T14:16:22.433Z,42.00
2018-06-27T14:18:51.134Z,42.10
2018-06-27T14:21:19.835Z,42.20
2018-06-27T14:23:48.417Z,42.50
2018-06-27T14:26:16.841Z,42.70
2018-06-27T14:28:45.232Z,43.10
2018-06-27T14:31:13.646Z,42.60
2018-06-27T14:33:42.138Z,42.50
2018-06-27T14:36:10.542Z,42.60
2018-06-27T14:38:38.953Z,42.90
2018-06-27T14:41:07.386Z,43.20
2018-06-27T14:46:03.985Z,43.10
2018-06-27T14:48:32.405Z,43.00
2018-06-27T14:51:00.839Z,42.90
2018-06-27T14:53:29.494Z,42.90
2018-06-27T14:55:57.913Z,42.90
2018-06-27T14:58:26.341Z,43.00
2018-06-27T15:00:54.773Z,43.30
2018-06-27T15:03:23.218Z,43.70
2018-06-27T15:05:51.683Z,43.20
2018-06-27T15:08:20.118Z,42.40
2018-06-27T15:10:48.531Z,42.00
2018-06-27T15:13:16.946Z,41.50
2018-06-27T15:15:45.345Z,41.10
2018-06-27T15:18:13.725Z,41.50
2018-06-27T15:20:42.291Z,42.30
2018-06-27T15:23:10.673Z,41.80
2018-06-27T15:25:39.155Z,40.30
2018-06-27T15:28:07.615Z,39.10
2018-06-27T15:30:36.067Z,39.40
2018-06-27T15:33:04.458Z,40.20
2018-06-27T15:35:32.888Z,40.80
2018-06-27T15:38:01.290Z,39.40
2018-06-27T15:40:29.676Z,37.70
2018-06-27T15:42:58.053Z,36.70
2018-06-27T15:45:26.500Z,37.20
2018-06-27T15:47:54.964Z,38.50
2018-06-27T15:50:23.394Z,39.90
2018-06-27T15:52:51.795Z,40.80
2018-06-27T15:55:20.330Z,41.70
2018-06-27T15:57:48.794Z,42.40
2018-06-27T16:00:17.162Z,42.70
2018-06-27T16:02:45.748Z,43.50
2018-06-27T16:05:14.187Z,42.90
2018-06-27T16:07:42.706Z,41.60
2018-06-27T16:10:11.593Z,41.30
2018-06-27T16:12:40.247Z,39.90
2018-06-27T16:15:08.756Z,38.40
2018-06-27T16:17:37.218Z,36.70
2018-06-27T16:20:06.105Z,36.60
2018-06-27T16:22:34.550Z,37.30
2018-06-27T16:25:03.258Z,37.40
2018-06-27T16:27:31.651Z,37.20
2018-06-27T16:30:00.250Z,37.60
2018-06-27T16:32:28.811Z,37.60
2018-06-27T16:34:57.210Z,38.00
2018-06-27T16:37:25.601Z,38.60
2018-06-27T16:39:54.038Z,39.50
2018-06-27T16:42:22.423Z,40.10
2018-06-27T16:44:50.857Z,39.70
2018-06-27T16:49:47.493Z,36.90
2018-06-27T16:52:15.895Z,35.50
2018-06-27T16:54:44.360Z,35.00
2018-06-27T16:57:12.719Z,34.50
2018-06-27T16:59:41.087Z,33.90
2018-06-27T17:02:09.498Z,33.30
2018-06-27T17:04:37.949Z,33.70
2018-06-27T17:07:06.360Z,33.80
2018-06-27T17:09:34.754Z,33.60
2018-06-27T17:12:03.247Z,33.50
2018-06-27T17:14:31.633Z,34.00
2018-06-27T17:17:00.172Z,34.70
2018-06-27T17:19:34.089Z,34.20
2018-06-27T17:22:02.641Z,33.50
2018-06-27T17:24:31.236Z,32.50
2018-06-27T17:26:59.654Z,31.70
2018-06-27T17:29:28.077Z,31.10
2018-06-27T17:31:56.521Z,30.60
2018-06-27T17:34:25.052Z,30.70
2018-06-27T17:36:53.506Z,31.90
2018-06-27T17:39:21.911Z,33.30
2018-06-27T17:41:50.326Z,34.60
2018-06-27T17:44:18.854Z,35.50
2018-06-27T17:46:50.371Z,36.20
2018-06-27T17:49:18.753Z,36.50
2018-06-27T17:54:15.627Z,36.90
2018-06-27T17:56:44.228Z,36.90
2018-06-27T17:59:12.634Z,37.10
2018-06-27T18:01:41.156Z,36.90
2018-06-27T18:04:09.541Z,36.70
2018-06-27T18:06:38.320Z,36.90
2018-06-27T18:09:09.401Z,36.90
2018-06-27T18:11:38.431Z,36.80
2018-06-27T18:14:06.937Z,36.70
2018-06-27T18:16:35.963Z,36.60
2018-06-27T18:19:04.366Z,36.50
2018-06-27T18:21:33.157Z,36.20
2018-06-27T18:24:01.698Z,35.80
2018-06-27T18:26:30.217Z,35.50
2018-06-27T18:28:58.679Z,35.10
2018-06-27T18:31:27.338Z,34.80
2018-06-27T18:33:55.881Z,34.40
2018-06-27T18:36:24.581Z,34.20
2018-06-27T18:38:53.170Z,33.80
2018-06-27T18:41:21.764Z,33.40
2018-06-27T18:43:50.784Z,33.10
2018-06-27T18:46:19.466Z,32.80
2018-06-27T18:48:48.539Z,32.60
2018-06-27T18:51:17.826Z,32.20
2018-06-27T18:53:46.795Z,31.80
2018-06-27T18:56:15.499Z,31.50
2018-06-27T18:58:44.019Z,30.80
2018-06-27T19:01:12.410Z,30.20
2018-06-27T19:03:40.851Z,29.70
2018-06-27T19:08:38.437Z,29.00
2018-06-27T19:11:07.380Z,28.70
2018-06-27T19:13:35.979Z,28.10
2018-06-27T19:16:04.508Z,27.50
2018-06-27T19:18:32.896Z,26.90
2018-06-27T19:21:01.262Z,26.40
2018-06-27T19:23:30.294Z,25.90
2018-06-27T19:25:59.509Z,25.50
2018-06-27T19:28:28.581Z,25.20
2018-06-27T19:30:57.079Z,24.90
2018-06-27T19:33:25.496Z,24.70
2018-06-27T19:35:54.002Z,24.40
2018-06-27T19:38:22.374Z,24.30
2018-06-27T19:40:51.513Z,24.00
2018-06-27T19:43:20.799Z,23.90
2018-06-27T19:45:49.255Z,23.80
2018-06-27T19:48:17.593Z,23.70
2018-06-27T19:50:45.976Z,23.60
2018-06-27T19:53:14.901Z,23.50
2018-06-27T19:55:43.399Z,23.40
2018-06-27T19:58:12.215Z,23.30
2018-06-27T20:00:40.598Z,23.20
2018-06-27T20:03:09.391Z,23.10
2018-06-27T20:05:37.806Z,23.00
2018-06-27T20:08:06.303Z,23.00
2018-06-27T20:10:35.257Z,22.90
2018-06-27T20:13:03.652Z,22.80
2018-06-27T20:15:32.076Z,22.70
2018-06-27T20:18:00.449Z,22.60
2018-06-27T20:20:29.034Z,22.50
2018-06-27T20:22:57.689Z,22.40
2018-06-27T20:25:26.034Z,22.40
2018-06-27T20:27:54.426Z,22.30
2018-06-27T20:30:22.766Z,22.30
2018-06-27T20:32:51.115Z,22.30
2018-06-27T20:35:19.487Z,22.20
2018-06-27T20:37:47.813Z,22.20
2018-06-27T20:40:16.253Z,22.10
2018-06-27T20:42:44.616Z,22.00
2018-06-27T20:45:13.021Z,22.00
2018-06-27T20:47:41.351Z,21.90
2018-06-27T20:50:09.827Z,21.80
2018-06-27T20:52:38.194Z,21.70
2018-06-27T20:55:06.642Z,21.70
2018-06-27T20:57:34.991Z,21.60
2018-06-27T21:00:03.392Z,21.60
2018-06-27T21:02:31.789Z,21.60
2018-06-27T21:05:00.159Z,21.50
2018-06-27T21:07:28.526Z,21.40
2018-06-27T21:09:56.885Z,21.40
2018-06-27T21:12:25.219Z,21.40
2018-06-27T21:14:53.665Z,21.30
2018-06-27T21:17:22.007Z,21.30
2018-06-27T21:19:50.412Z,21.20
2018-06-27T21:22:18.784Z,21.10
2018-06-27T21:27:15.599Z,21.10
2018-06-27T21:29:44.216Z,21.10
2018-06-27T21:32:12.622Z,21.10
2018-06-27T21:34:41.062Z,21.00
2018-06-27T21:37:09.386Z,21.00
2018-06-27T21:39:37.720Z,20.90
2018-06-27T21:42:06.085Z,20.90
2018-06-27T21:44:34.455Z,20.80
2018-06-27T21:47:02.758Z,20.70
2018-06-27T21:49:31.099Z,20.70
2018-06-27T21:51:59.417Z,20.70
2018-06-27T21:54:27.835Z,20.60
2018-06-27T21:56:56.163Z,20.60
2018-06-27T21:59:24.523Z,20.50
2018-06-27T22:01:52.884Z,20.50
2018-06-27T22:04:21.248Z,20.40
2018-06-27T22:06:49.631Z,20.30
2018-06-27T22:09:18.107Z,20.30
2018-06-27T22:11:46.525Z,20.20
2018-06-27T22:14:14.922Z,20.20
2018-06-27T22:16:43.312Z,20.20
2018-06-27T22:19:11.658Z,20.10
2018-06-27T22:21:40.143Z,20.10
2018-06-27T22:24:08.563Z,20.00
2018-06-27T22:26:36.946Z,20.00
2018-06-27T22:29:05.330Z,19.90
2018-06-27T22:31:33.826Z,19.90
2018-06-27T22:34:02.238Z,19.90
2018-06-27T22:38:58.783Z,19.80
2018-06-27T22:41:27.219Z,19.80
2018-06-27T22:43:55.742Z,19.90
2018-06-27T22:46:24.158Z,19.80
2018-06-27T22:48:52.517Z,19.80
2018-06-27T22:51:20.951Z,19.80
2018-06-27T22:53:49.329Z,19.80
2018-06-27T22:56:17.701Z,19.70
2018-06-27T22:58:46.914Z,19.70
2018-06-27T23:01:15.343Z,19.70
2018-06-27T23:03:43.718Z,19.70
2018-06-27T23:06:12.174Z,19.70
2018-06-27T23:08:40.798Z,19.60
2018-06-27T23:11:09.338Z,19.60
2018-06-27T23:13:38.010Z,19.50
2018-06-27T23:16:06.713Z,19.50
2018-06-27T23:18:35.378Z,19.40
2018-06-27T23:21:03.928Z,19.40
2018-06-27T23:23:32.294Z,19.40
2018-06-27T23:26:00.714Z,19.40
2018-06-27T23:28:29.097Z,19.40
2018-06-27T23:30:57.478Z,19.30
2018-06-27T23:33:25.869Z,19.30
2018-06-27T23:35:54.279Z,19.30
2018-06-27T23:38:22.683Z,19.30
2018-06-27T23:40:51.074Z,19.30
2018-06-27T23:43:19.447Z,19.20
2018-06-27T23:45:47.833Z,19.20
2018-06-27T23:48:16.190Z,19.20
2018-06-27T23:50:44.606Z,19.10
2018-06-27T23:53:13.086Z,19.10
2018-06-27T23:55:41.522Z,19.10
2018-06-27T23:58:09.873Z,19.00
